Time,TemperatureF,DewpointF,PressureIn,WindDirection,WindDirectionDegrees,WindSpeedMPH,WindSpeedGustMPH,Humidity,HourlyPrecipIn,Conditions,Clouds,dailyrainin,SoftwareType,DateUTC
2013-02-23 00:00:00,35.1,28.9,30.17,SE,140,1.0,1.0,78,0.00,,,0.00,Wunderground v.1.15,2013-02-23 05:00:00,
2013-02-23 00:20:00,35.2,29.3,30.17,SE,140,1.0,2.0,79,0.00,,,0.00,Wunderground v.1.15,2013-02-23 05:20:00,
2013-02-23 00:45:00,35.2,29.3,30.15,SSE,148,2.0,2.0,79,0.00,,,0.00,Wunderground v.1.15,2013-02-23 05:45:00,
2013-02-23 00:50:00,35.1,29.2,30.15,ESE,110,3.0,4.0,79,0.00,,,0.00,Wunderground v.1.15,2013-02-23 05:50:00,
2013-02-23 00:55:00,35.1,29.2,30.15,SSW,203,3.0,3.0,79,0.00,,,0.00,Wunderground v.1.15,2013-02-23 05:55:00,
2013-02-23 00:59:00,35.1,29.2,30.16,South,178,3.0,3.0,79,0.00,,,0.00,Wunderground v.1.15,2013-02-23 05:59:00,
2013-02-23 01:05:00,35.1,29.2,30.16,South,180,3.0,7.0,79,0.00,,,0.00,Wunderground v.1.15,2013-02-23 06:05:00,
2013-02-23 01:45:00,35.1,29.6,30.15,SSW,198,2.0,2.0,80,0.00,,,0.00,Wunderground v.1.15,2013-02-23 06:45:00,
2013-02-23 01:49:00,35.0,29.5,30.15,SSW,200,2.0,3.0,80,0.00,,,0.00,Wunderground v.1.15,2013-02-23 06:49:00,
2013-02-23 01:55:00,35.0,29.5,30.15,South,188,2.0,3.0,80,0.00,,,0.00,Wunderground v.1.15,2013-02-23 06:55:00,
2013-02-23 02:14:00,35.0,29.8,30.15,SSW,194,3.0,3.0,81,0.00,,,0.00,Wunderground v.1.15,2013-02-23 07:14:00,
2013-02-23 02:19:00,34.9,29.7,30.14,South,173,2.0,2.0,81,0.00,,,0.00,Wunderground v.1.15,2013-02-23 07:19:00,
2013-02-23 02:25:00,34.9,29.7,30.13,SSW,207,2.0,4.0,81,0.00,,,0.00,Wunderground v.1.15,2013-02-23 07:25:00,
2013-02-23 02:50:00,35.0,29.8,30.13,SSW,202,3.0,3.0,81,0.00,,,0.00,Wunderground v.1.15,2013-02-23 07:50:00,
2013-02-23 02:54:00,35.0,29.8,30.12,SSW,208,3.0,3.0,81,0.00,,,0.00,Wunderground v.1.15,2013-02-23 07:54:00,
2013-02-23 03:00:00,34.9,29.7,30.13,South,190,3.0,3.0,81,0.00,,,0.00,Wunderground v.1.15,2013-02-23 08:00:00,
2013-02-23 03:30:00,34.8,29.9,30.10,SE,136,0.0,0.0,82,0.00,,,0.00,Wunderground v.1.15,2013-02-23 08:30:00,
2013-02-23 03:35:00,34.8,29.9,30.09,South,177,0.0,2.0,82,0.00,,,0.00,Wunderground v.1.15,2013-02-23 08:35:00,
2013-02-23 03:45:00,34.9,30.0,30.10,SSW,200,2.0,3.0,82,0.00,,,0.00,Wunderground v.1.15,2013-02-23 08:45:00,
2013-02-23 03:55:00,34.8,29.9,30.08,South,183,1.0,1.0,82,0.00,,,0.00,Wunderground v.1.15,2013-02-23 08:55:00,
2013-02-23 04:05:00,34.8,29.9,30.09,SSW,200,2.0,2.0,82,0.00,,,0.00,Wunderground v.1.15,2013-02-23 09:05:00,
2013-02-23 04:15:00,34.8,29.9,30.09,SSW,205,1.0,1.0,82,0.00,,,0.00,Wunderground v.1.15,2013-02-23 09:15:00,
2013-02-23 04:19:00,34.8,30.2,30.10,SSW,205,1.0,1.0,83,0.00,,,0.00,Wunderground v.1.15,2013-02-23 09:19:00,
2013-02-23 04:30:00,34.8,30.2,30.10,SSW,207,2.0,2.0,83,0.00,,,0.00,Wunderground v.1.15,2013-02-23 09:30:00,
2013-02-23 04:35:00,34.8,30.2,30.09,SW,226,2.0,2.0,83,0.00,,,0.00,Wunderground v.1.15,2013-02-23 09:35:00,
2013-02-23 04:40:00,34.8,30.2,30.09,SSW,202,1.0,2.0,83,0.00,,,0.00,Wunderground v.1.15,2013-02-23 09:40:00,
2013-02-23 04:50:00,34.8,30.2,30.08,SE,141,1.0,1.0,83,0.00,,,0.00,Wunderground v.1.15,2013-02-23 09:50:00,
2013-02-23 04:55:00,34.8,30.2,30.07,SSW,203,1.0,1.0,83,0.00,,,0.00,Wunderground v.1.15,2013-02-23 09:55:00,
2013-02-23 05:06:00,34.9,30.3,30.08,WSW,255,2.0,2.0,83,0.00,,,0.00,Wunderground v.1.15,2013-02-23 10:06:00,
2013-02-23 05:10:00,35.0,30.4,30.08,West,271,2.0,3.0,83,0.00,,,0.00,Wunderground v.1.15,2013-02-23 10:10:00,
2013-02-23 05:15:00,34.9,30.3,30.08,West,274,1.0,1.0,83,0.00,,,0.00,Wunderground v.1.15,2013-02-23 10:15:00,
2013-02-23 05:30:00,34.8,30.5,30.07,West,274,0.0,0.0,84,0.00,,,0.00,Wunderground v.1.15,2013-02-23 10:30:00,
2013-02-23 05:35:00,34.8,30.5,30.08,West,274,0.0,0.0,84,0.00,,,0.00,Wunderground v.1.15,2013-02-23 10:35:00,
2013-02-23 05:50:00,34.8,30.5,30.08,WSW,251,0.0,1.0,84,0.00,,,0.00,Wunderground v.1.15,2013-02-23 10:50:00,
2013-02-23 06:00:00,34.7,30.4,30.08,WSW,256,1.0,1.0,84,0.00,,,0.00,Wunderground v.1.15,2013-02-23 11:00:00,
2013-02-23 06:10:00,34.6,30.6,30.08,West,278,1.0,1.0,85,0.00,,,0.00,Wunderground v.1.15,2013-02-23 11:10:00,
2013-02-23 06:15:00,34.5,30.5,30.08,West,278,1.0,1.0,85,0.00,,,0.00,Wunderground v.1.15,2013-02-23 11:15:00,
2013-02-23 06:25:00,34.5,30.5,30.08,West,278,0.0,0.0,85,0.00,,,0.00,Wunderground v.1.15,2013-02-23 11:25:00,
2013-02-23 06:30:00,34.4,30.4,30.08,SSW,198,0.0,0.0,85,0.00,,,0.00,Wunderground v.1.15,2013-02-23 11:30:00,
2013-02-23 06:40:00,34.4,30.4,30.08,SSE,148,0.0,0.0,85,0.00,,,0.00,Wunderground v.1.15,2013-02-23 11:40:00,
2013-02-23 07:00:00,34.4,30.6,30.07,SSE,148,0.0,1.0,86,0.00,,,0.00,Wunderground v.1.15,2013-02-23 12:00:00,
2013-02-23 07:15:00,34.3,30.5,30.07,SSE,148,0.0,0.0,86,0.00,,,0.00,Wunderground v.1.15,2013-02-23 12:15:00,
2013-02-23 07:20:00,34.4,30.6,30.07,SSE,148,0.0,0.0,86,0.00,,,0.00,Wunderground v.1.15,2013-02-23 12:20:00,
2013-02-23 07:24:00,34.4,30.6,30.07,SSE,148,0.0,0.0,86,0.00,,,0.00,Wunderground v.1.15,2013-02-23 12:24:00,
2013-02-23 07:30:00,34.4,30.6,30.06,SSE,148,0.0,0.0,86,0.00,,,0.00,Wunderground v.1.15,2013-02-23 12:30:00,
2013-02-23 07:34:00,34.4,30.6,30.06,SSE,148,0.0,0.0,86,0.00,,,0.00,Wunderground v.1.15,2013-02-23 12:34:00,
2013-02-23 07:45:00,34.4,30.6,30.05,SE,129,0.0,0.0,86,0.00,,,0.00,Wunderground v.1.15,2013-02-23 12:45:00,
2013-02-23 07:50:00,34.5,30.7,30.06,SW,234,0.0,0.0,86,0.00,,,0.00,Wunderground v.1.15,2013-02-23 12:50:00,
2013-02-23 08:00:00,34.7,30.9,30.05,North,6,1.0,2.0,86,0.00,,,0.00,Wunderground v.1.15,2013-02-23 13:00:00,
2013-02-23 08:20:00,34.8,30.8,30.05,NNE,14,1.0,1.0,85,0.00,,,0.00,Wunderground v.1.15,2013-02-23 13:20:00,
2013-02-23 08:25:00,34.9,30.8,30.05,North,5,1.0,1.0,85,0.00,,,0.00,Wunderground v.1.15,2013-02-23 13:25:00,
2013-02-23 08:30:00,35.0,30.9,30.05,NNE,15,1.0,2.0,85,0.00,,,0.00,Wunderground v.1.15,2013-02-23 13:30:00,
2013-02-23 08:40:00,35.1,31.3,30.04,ENE,57,2.0,4.0,86,0.00,,,0.00,Wunderground v.1.15,2013-02-23 13:40:00,
2013-02-23 08:50:00,35.0,30.9,30.05,NE,42,3.0,3.0,85,0.00,,,0.00,Wunderground v.1.15,2013-02-23 13:50:00,
2013-02-23 09:00:00,35.3,31.5,30.05,NE,49,1.0,2.0,86,0.00,,,0.00,Wunderground v.1.15,2013-02-23 14:00:00,
2013-02-23 09:05:00,35.3,31.2,30.04,ENE,58,1.0,3.0,85,0.00,,,0.00,Wunderground v.1.15,2013-02-23 14:05:00,
2013-02-23 09:15:00,35.6,31.5,30.04,NNW,340,2.0,2.0,85,0.00,,,0.00,Wunderground v.1.15,2013-02-23 14:15:00,
2013-02-23 09:20:00,35.7,31.3,30.04,North,11,1.0,2.0,84,0.00,,,0.00,Wunderground v.1.15,2013-02-23 14:20:00,
2013-02-23 09:30:00,36.1,31.7,30.04,NNE,26,1.0,1.0,84,0.00,,,0.00,Wunderground v.1.15,2013-02-23 14:30:00,
2013-02-23 09:45:00,36.4,31.7,30.04,West,277,1.0,2.0,83,0.00,,,0.00,Wunderground v.1.15,2013-02-23 14:45:00,
2013-02-23 10:00:00,36.6,31.9,30.03,West,268,1.0,1.0,83,0.00,,,0.00,Wunderground v.1.15,2013-02-23 15:00:00,
2013-02-23 10:05:00,36.9,31.9,30.03,West,268,0.0,1.0,82,0.00,,,0.00,Wunderground v.1.15,2013-02-23 15:05:00,
2013-02-23 10:09:00,36.9,31.9,30.03,West,269,1.0,1.0,82,0.00,,,0.00,Wunderground v.1.15,2013-02-23 15:09:00,
2013-02-23 10:14:00,37.1,32.1,30.03,NE,55,1.0,1.0,82,0.00,,,0.00,Wunderground v.1.15,2013-02-23 15:14:00,
2013-02-23 10:20:00,37.1,32.4,30.03,ENE,69,2.0,2.0,83,0.00,,,0.00,Wunderground v.1.15,2013-02-23 15:20:00,
2013-02-23 10:24:00,37.5,32.8,30.03,NNE,29,1.0,2.0,83,0.00,,,0.00,Wunderground v.1.15,2013-02-23 15:24:00,
2013-02-23 10:30:00,37.7,32.7,30.02,NNE,22,1.0,3.0,82,0.00,,,0.00,Wunderground v.1.15,2013-02-23 15:30:00,
2013-02-23 10:35:00,37.7,32.7,30.02,North,5,2.0,3.0,82,0.00,,,0.00,Wunderground v.1.15,2013-02-23 15:35:00,
2013-02-23 10:44:00,37.7,32.4,30.01,East,79,2.0,3.0,81,0.00,,,0.00,Wunderground v.1.15,2013-02-23 15:44:00,
2013-02-23 10:49:00,37.7,32.7,30.00,ENE,73,3.0,3.0,82,0.00,,,0.00,Wunderground v.1.15,2013-02-23 15:49:00,
2013-02-23 11:00:00,38.6,33.6,29.99,ENE,70,2.0,2.0,82,0.00,,,0.00,Wunderground v.1.15,2013-02-23 16:00:00,
2013-02-23 11:10:00,39.4,34.1,30.00,WNW,290,2.0,2.0,81,0.00,,,0.00,Wunderground v.1.15,2013-02-23 16:10:00,
2013-02-23 11:24:00,40.4,34.7,29.99,NNE,26,2.0,3.0,80,0.00,,,0.00,Wunderground v.1.15,2013-02-23 16:24:00,
2013-02-23 11:30:00,40.5,34.8,29.99,NNW,333,2.0,3.0,80,0.00,,,0.00,Wunderground v.1.15,2013-02-23 16:30:00,
2013-02-23 11:44:00,42.0,35.3,29.99,WNW,284,1.0,2.0,77,0.00,,,0.00,Wunderground v.1.15,2013-02-23 16:44:00,
2013-02-23 11:50:00,42.0,35.6,29.99,West,263,2.0,2.0,78,0.00,,,0.00,Wunderground v.1.15,2013-02-23 16:50:00,
2013-02-23 11:55:00,42.4,36.0,29.99,NW,307,1.0,2.0,78,0.00,,,0.00,Wunderground v.1.15,2013-02-23 16:55:00,
2013-02-23 12:00:00,42.6,35.9,29.99,West,262,1.0,1.0,77,0.00,,,0.00,Wunderground v.1.15,2013-02-23 17:00:00,
2013-02-23 12:09:00,43.9,37.2,29.98,NNW,328,1.0,1.0,77,0.00,,,0.00,Wunderground v.1.15,2013-02-23 17:09:00,
2013-02-23 12:14:00,44.3,36.9,29.98,WNW,302,1.0,1.0,75,0.00,,,0.00,Wunderground v.1.15,2013-02-23 17:14:00,
2013-02-23 12:40:00,46.3,38.1,29.96,NW,311,1.0,2.0,73,0.00,,,0.00,Wunderground v.1.15,2013-02-23 17:40:00,
2013-02-23 12:49:00,46.6,38.4,29.96,NE,35,1.0,1.0,73,0.00,,,0.00,Wunderground v.1.15,2013-02-23 17:49:00,
2013-02-23 12:55:00,46.4,38.2,29.95,North,354,1.0,1.0,73,0.00,,,0.00,Wunderground v.1.15,2013-02-23 17:55:00,
2013-02-23 13:05:00,47.1,38.9,29.94,NE,51,2.0,3.0,73,0.00,,,0.00,Wunderground v.1.15,2013-02-23 18:05:00,
2013-02-23 13:15:00,47.6,39.4,29.94,ESE,117,1.0,1.0,73,0.00,,,0.00,Wunderground v.1.15,2013-02-23 18:15:00,
2013-02-23 13:20:00,47.7,39.1,29.93,East,91,2.0,4.0,72,0.00,,,0.00,Wunderground v.1.15,2013-02-23 18:20:00,
2013-02-23 13:30:00,48.3,39.7,29.93,South,184,2.0,2.0,72,0.00,,,0.00,Wunderground v.1.15,2013-02-23 18:30:00,
2013-02-23 13:40:00,49.1,40.1,29.93,NW,321,1.0,2.0,71,0.00,,,0.00,Wunderground v.1.15,2013-02-23 18:40:00,
2013-02-23 13:50:00,49.3,40.3,29.92,ESE,120,2.0,2.0,71,0.00,,,0.00,Wunderground v.1.15,2013-02-23 18:50:00,
2013-02-23 13:55:00,49.4,40.7,29.92,West,269,2.0,2.0,72,0.00,,,0.00,Wunderground v.1.15,2013-02-23 18:55:00,
2013-02-23 14:00:00,49.2,40.2,29.92,WSW,252,2.0,3.0,71,0.00,,,0.00,Wunderground v.1.15,2013-02-23 19:00:00,
2013-02-23 14:10:00,49.5,40.8,29.91,NW,311,2.0,2.0,72,0.00,,,0.00,Wunderground v.1.15,2013-02-23 19:10:00,
2013-02-23 14:20:00,50.6,41.5,29.90,NNE,18,1.0,1.0,71,0.00,,,0.00,Wunderground v.1.15,2013-02-23 19:20:00,
2013-02-23 14:25:00,51.0,41.2,29.89,SSE,153,1.0,1.0,69,0.00,,,0.00,Wunderground v.1.15,2013-02-23 19:25:00,
2013-02-23 14:35:00,51.7,41.5,29.89,ENE,76,2.0,3.0,68,0.00,,,0.00,Wunderground v.1.15,2013-02-23 19:35:00,
2013-02-23 14:45:00,51.2,41.0,29.89,WSW,238,2.0,2.0,68,0.00,,,0.00,Wunderground v.1.15,2013-02-23 19:45:00,
2013-02-23 14:55:00,51.0,40.8,29.89,East,92,2.0,2.0,68,0.00,,,0.00,Wunderground v.1.15,2013-02-23 19:55:00,
2013-02-23 15:00:00,51.5,41.3,29.88,SSW,207,1.0,2.0,68,0.00,,,0.00,Wunderground v.1.15,2013-02-23 20:00:00,
2013-02-23 15:04:00,51.8,40.8,29.88,SW,231,2.0,3.0,66,0.00,,,0.00,Wunderground v.1.15,2013-02-23 20:04:00,
2013-02-23 15:09:00,51.9,41.3,29.88,SE,134,2.0,2.0,67,0.00,,,0.00,Wunderground v.1.15,2013-02-23 20:09:00,
2013-02-23 15:25:00,53.3,41.8,29.87,SSE,163,1.0,1.0,65,0.00,,,0.00,Wunderground v.1.15,2013-02-23 20:25:00,
2013-02-23 15:30:00,53.2,40.9,29.87,NE,47,1.0,2.0,63,0.00,,,0.00,Wunderground v.1.15,2013-02-23 20:30:00,
2013-02-23 15:40:00,51.9,40.9,29.86,NE,51,2.0,2.0,66,0.00,,,0.00,Wunderground v.1.15,2013-02-23 20:40:00,
2013-02-23 15:49:00,51.7,40.7,29.86,East,96,1.0,1.0,66,0.00,,,0.00,Wunderground v.1.15,2013-02-23 20:49:00,
2013-02-23 16:09:00,51.9,40.9,29.86,NE,37,2.0,2.0,66,0.00,,,0.00,Wunderground v.1.15,2013-02-23 21:09:00,
2013-02-23 16:15:00,52.4,41.0,29.86,NE,37,1.0,2.0,65,0.00,,,0.00,Wunderground v.1.15,2013-02-23 21:15:00,
2013-02-23 16:25:00,52.4,41.0,29.86,NE,36,1.0,1.0,65,0.00,,,0.00,Wunderground v.1.15,2013-02-23 21:25:00,
2013-02-23 16:30:00,52.1,41.1,29.86,North,354,1.0,1.0,66,0.00,,,0.00,Wunderground v.1.15,2013-02-23 21:30:00,
2013-02-23 16:35:00,52.5,41.5,29.86,West,280,1.0,1.0,66,0.00,,,0.00,Wunderground v.1.15,2013-02-23 21:35:00,
2013-02-23 16:39:00,52.9,41.4,29.86,West,269,0.0,1.0,65,0.00,,,0.00,Wunderground v.1.15,2013-02-23 21:39:00,
2013-02-23 16:50:00,52.9,41.0,29.86,NE,53,0.0,2.0,64,0.00,,,0.00,Wunderground v.1.15,2013-02-23 21:50:00,
2013-02-23 16:55:00,52.3,40.9,29.86,NE,41,1.0,2.0,65,0.00,,,0.00,Wunderground v.1.15,2013-02-23 21:55:00,
2013-02-23 17:10:00,51.6,40.6,29.86,ENE,73,2.0,2.0,66,0.00,,,0.00,Wunderground v.1.15,2013-02-23 22:10:00,
2013-02-23 17:15:00,51.4,40.8,29.86,ENE,74,2.0,2.0,67,0.00,,,0.00,Wunderground v.1.15,2013-02-23 22:15:00,
2013-02-23 17:20:00,51.2,40.6,29.86,ENE,68,2.0,2.0,67,0.00,,,0.00,Wunderground v.1.15,2013-02-23 22:20:00,
2013-02-23 17:30:00,51.0,40.8,29.86,ENE,72,2.0,2.0,68,0.00,,,0.00,Wunderground v.1.15,2013-02-23 22:30:00,
2013-02-23 17:34:00,50.9,40.7,29.85,ENE,70,2.0,3.0,68,0.00,,,0.00,Wunderground v.1.15,2013-02-23 22:34:00,
2013-02-23 17:40:00,50.5,40.3,29.85,NE,42,2.0,2.0,68,0.00,,,0.00,Wunderground v.1.15,2013-02-23 22:40:00,
2013-02-23 17:44:00,50.0,40.2,29.85,NNE,27,2.0,2.0,69,0.00,,,0.00,Wunderground v.1.15,2013-02-23 22:44:00,
2013-02-23 17:55:00,48.9,39.9,29.85,NNE,27,0.0,0.0,71,0.00,,,0.00,Wunderground v.1.15,2013-02-23 22:55:00,
2013-02-23 17:59:00,48.4,39.8,29.85,NNE,27,0.0,0.0,72,0.00,,,0.00,Wunderground v.1.15,2013-02-23 22:59:00,
2013-02-23 18:05:00,47.6,39.7,29.86,West,271,0.0,1.0,74,0.00,,,0.00,Wunderground v.1.15,2013-02-23 23:05:00,
2013-02-23 18:15:00,46.1,39.0,29.86,West,271,1.0,1.0,76,0.00,,,0.00,Wunderground v.1.15,2013-02-23 23:15:00,
2013-02-23 18:20:00,45.0,38.2,29.86,West,273,0.0,1.0,77,0.00,,,0.00,Wunderground v.1.15,2013-02-23 23:20:00,
2013-02-23 18:25:00,44.5,38.1,29.85,West,273,0.0,1.0,78,0.00,,,0.00,Wunderground v.1.15,2013-02-23 23:25:00,
2013-02-23 18:29:00,44.0,37.9,29.85,West,273,1.0,1.0,79,0.00,,,0.00,Wunderground v.1.15,2013-02-23 23:29:00,
2013-02-23 18:34:00,43.3,37.2,29.85,West,273,1.0,1.0,79,0.00,,,0.00,Wunderground v.1.15,2013-02-23 23:34:00,
2013-02-23 18:45:00,42.5,37.1,29.84,West,273,1.0,1.0,81,0.00,,,0.00,Wunderground v.1.15,2013-02-23 23:45:00,
2013-02-23 18:55:00,41.7,36.0,29.85,West,273,0.0,0.0,80,0.00,,,0.00,Wunderground v.1.15,2013-02-23 23:55:00,
2013-02-23 19:00:00,41.3,36.5,29.85,West,273,0.0,0.0,83,0.00,,,0.00,Wunderground v.1.15,2013-02-24 00:00:00,
2013-02-23 19:05:00,41.5,37.0,29.85,West,273,0.0,1.0,84,0.00,,,0.00,Wunderground v.1.15,2013-02-24 00:05:00,
2013-02-23 19:15:00,41.7,36.9,29.85,West,273,0.0,0.0,83,0.00,,,0.00,Wunderground v.1.15,2013-02-24 00:15:00,
2013-02-23 19:20:00,41.2,36.1,29.85,West,274,0.0,0.0,82,0.00,,,0.00,Wunderground v.1.15,2013-02-24 00:20:00,
2013-02-23 19:30:00,40.5,36.3,29.85,West,273,0.0,1.0,85,0.00,,,0.00,Wunderground v.1.15,2013-02-24 00:30:00,
2013-02-23 19:35:00,40.5,36.3,29.85,West,273,0.0,1.0,85,0.00,,,0.00,Wunderground v.1.15,2013-02-24 00:35:00,
2013-02-23 19:39:00,40.6,36.7,29.85,West,273,0.0,0.0,86,0.00,,,0.00,Wunderground v.1.15,2013-02-24 00:39:00,
2013-02-23 19:45:00,40.6,36.7,29.85,West,273,0.0,0.0,86,0.00,,,0.00,Wunderground v.1.15,2013-02-24 00:45:00,
2013-02-23 19:55:00,40.4,36.8,29.84,West,273,0.0,1.0,87,0.00,,,0.00,Wunderground v.1.15,2013-02-24 00:55:00,
2013-02-23 19:59:00,40.2,36.6,29.84,West,273,0.0,1.0,87,0.00,,,0.00,Wunderground v.1.15,2013-02-24 00:59:00,
2013-02-23 20:10:00,40.7,37.1,29.84,West,273,1.0,1.0,87,0.00,,,0.00,Wunderground v.1.15,2013-02-24 01:10:00,
2013-02-23 20:20:00,40.9,37.0,29.84,West,268,1.0,1.0,86,0.00,,,0.00,Wunderground v.1.15,2013-02-24 01:20:00,
2013-02-23 20:25:00,41.1,37.5,29.84,WNW,292,1.0,1.0,87,0.00,,,0.00,Wunderground v.1.15,2013-02-24 01:25:00,
2013-02-23 20:34:00,41.1,37.5,29.84,WNW,294,0.0,0.0,87,0.00,,,0.00,Wunderground v.1.15,2013-02-24 01:34:00,
2013-02-23 20:44:00,41.2,37.6,29.84,North,5,1.0,2.0,87,0.00,,,0.00,Wunderground v.1.15,2013-02-24 01:44:00,
2013-02-23 20:50:00,41.1,37.2,29.85,North,5,1.0,2.0,86,0.00,,,0.00,Wunderground v.1.15,2013-02-24 01:50:00,
2013-02-23 20:55:00,40.7,36.8,29.84,North,5,0.0,0.0,86,0.00,,,0.00,Wunderground v.1.15,2013-02-24 01:55:00,
2013-02-23 21:20:00,40.7,37.7,29.84,North,360,1.0,1.0,89,0.00,,,0.00,Wunderground v.1.15,2013-02-24 02:20:00,
2013-02-23 21:25:00,40.9,37.9,29.84,NNE,23,1.0,1.0,89,0.00,,,0.00,Wunderground v.1.15,2013-02-24 02:25:00,
2013-02-23 21:30:00,41.1,38.1,29.84,NW,314,1.0,2.0,89,0.00,,,0.00,Wunderground v.1.15,2013-02-24 02:30:00,
2013-02-23 21:35:00,41.1,37.8,29.84,NNW,348,1.0,2.0,88,0.00,,,0.00,Wunderground v.1.15,2013-02-24 02:35:00,
2013-02-23 21:44:00,40.8,37.8,29.84,NW,314,1.0,3.0,89,0.00,,,0.00,Wunderground v.1.15,2013-02-24 02:44:00,
2013-02-23 21:50:00,40.9,37.9,29.84,NW,314,1.0,3.0,89,0.00,,,0.00,Wunderground v.1.15,2013-02-24 02:50:00,
2013-02-23 22:00:00,40.8,38.1,29.83,North,6,1.0,2.0,90,0.00,,,0.00,Wunderground v.1.15,2013-02-24 03:00:00,
2013-02-23 22:05:00,40.8,38.1,29.83,NNW,335,1.0,2.0,90,0.00,,,0.00,Wunderground v.1.15,2013-02-24 03:05:00,
2013-02-23 22:14:00,40.6,37.9,29.83,North,351,2.0,2.0,90,0.00,,,0.00,Wunderground v.1.15,2013-02-24 03:14:00,
2013-02-23 22:20:00,40.4,37.7,29.83,NNW,343,1.0,2.0,90,0.00,,,0.00,Wunderground v.1.15,2013-02-24 03:20:00,
2013-02-23 22:25:00,40.3,37.9,29.84,NW,323,1.0,1.0,91,0.00,,,0.00,Wunderground v.1.15,2013-02-24 03:25:00,
2013-02-23 22:29:00,40.2,37.8,29.84,NW,324,1.0,1.0,91,0.00,,,0.00,Wunderground v.1.15,2013-02-24 03:29:00,
2013-02-23 22:35:00,40.0,37.6,29.83,NNW,342,1.0,1.0,91,0.00,,,0.00,Wunderground v.1.15,2013-02-24 03:35:00,
2013-02-23 22:45:00,39.7,37.6,29.83,NNE,12,2.0,2.0,92,0.00,,,0.00,Wunderground v.1.15,2013-02-24 03:45:00,
2013-02-23 22:50:00,39.6,37.5,29.83,NNW,343,1.0,2.0,92,0.00,,,0.00,Wunderground v.1.15,2013-02-24 03:50:00,
2013-02-23 23:00:00,39.4,37.3,29.83,NW,305,2.0,2.0,92,0.00,,,0.00,Wunderground v.1.15,2013-02-24 04:00:00,
2013-02-23 23:10:00,38.9,36.8,29.83,NW,315,1.0,1.0,92,0.00,,,0.00,Wunderground v.1.15,2013-02-24 04:10:00,
2013-02-23 23:19:00,38.3,36.5,29.83,West,277,1.0,1.0,93,0.00,,,0.00,Wunderground v.1.15,2013-02-24 04:19:00,
2013-02-23 23:25:00,38.1,36.3,29.83,WNW,293,1.0,1.0,93,0.00,,,0.00,Wunderground v.1.15,2013-02-24 04:25:00,
2013-02-23 23:34:00,37.8,36.2,29.83,WNW,286,0.0,0.0,94,0.00,,,0.00,Wunderground v.1.15,2013-02-24 04:34:00,
2013-02-23 23:40:00,37.7,36.1,29.84,West,278,0.0,0.0,94,0.00,,,0.00,Wunderground v.1.15,2013-02-24 04:40:00,
2013-02-23 23:45:00,37.4,35.6,29.84,West,278,0.0,0.0,93,0.00,,,0.00,Wunderground v.1.15,2013-02-24 04:45:00,
2013-02-23 23:49:00,37.2,35.4,29.84,West,278,0.0,1.0,93,0.00,,,0.00,Wunderground v.1.15,2013-02-24 04:49:00,
2013-02-23 23:55:00,36.9,35.3,29.83,West,278,0.0,1.0,94,0.00,,,0.00,Wunderground v.1.15,2013-02-24 04:55:00,